Flight Track Log - Related Links

Times and Time Zones

All times are in EDT time to prevent confusion due to time zone crossing. See the N468AM flight status page for this flight to view local times or setup timezone preferences in your user account.

Time Position Orientation Groundspeed Altitude Reporting Facility
EDT Latitude Longitude Course Direction KTS MPH feet Rate Location/Type
Sun 10:19:47 PM 41.8850 -88.2975 274° West 211 243 2,900  Level Chicago Center
Sun 10:20:48 PM 41.9494 -88.3053 355° North 243 280 5,400 2,585 Climbing Chicago Center
Sun 10:21:50 PM 42.0214 -88.2992 North 256 295 8,200 2,537 Climbing Chicago Center
Sun 10:22:51 PM 42.0836 -88.2389 36° Northeast 280 322 10,600 2,244 Climbing Chicago Center
Sun 10:23:53 PM 42.1481 -88.1692 39° Northeast 292 336 12,800 2,049 Climbing Chicago Center
Sun 10:24:54 PM 42.2108 -88.0989 40° Northeast 296 341 14,800 1,415 Climbing Chicago Center
Sun 10:25:56 PM 42.2947 -88.0669 16° North 315 362 15,700 1,366 Climbing Chicago Center
Sun 10:26:57 PM 42.3653 -87.9775 43° Northeast 332 382 17,600 1,951 Climbing Chicago Center
Sun 10:27:59 PM 42.4378 -87.8653 49° Northeast 337 388 19,700 1,659 Climbing Chicago Center
Sun 10:29:00 PM 42.5000 -87.7683 49° Northeast 340 391 21,000 634 Climbing Chicago Center
Sun 10:30:02 PM 42.5625 -87.6681 50° Northeast 352 405 21,000  Level Chicago Center
Sun 10:31:03 PM 42.6328 -87.5556 50° Northeast 372 428 21,000  Level Chicago Center
Sun 10:32:05 PM 42.6644 -87.4197 72° East 395 455 21,000  Level Chicago Center
Sun 10:33:06 PM 42.6697 -87.2775 87° East 393 452 21,000  Level Chicago Center
Sun 10:34:08 PM 42.6731 -87.1294 88° East 394 453 21,000  Level Chicago Center
Sun 10:35:09 PM 42.6781 -86.9511 88° East 394 453 21,000  Level Chicago Center
Sun 10:36:10 PM 42.6822 -86.8044 88° East 392 451 21,000  Level Chicago Center
Sun 10:37:12 PM 42.6858 -86.6578 88° East 391 450 21,000  Level Chicago Center
Sun 10:38:13 PM 42.6883 -86.5089 89° East 388 447 21,000  Level Chicago Center
Sun 10:39:15 PM 42.6925 -86.3656 88° East 392 451 21,000  Level Chicago Center
Sun 10:40:16 PM 42.6947 -86.2194 89° East 391 450 21,000  Level Chicago Center
Sun 10:41:18 PM 42.6975 -86.0733 88° East 391 450 21,000  Level Chicago Center
Sun 10:42:19 PM 42.7011 -85.8978 88° East 392 451 21,000  Level Chicago Center
Sun 10:43:20 PM 42.7036 -85.7517 89° East 392 451 21,000 -244 Level Chicago Center
Sun 10:44:22 PM 42.7064 -85.6064 88° East 390 449 20,500 -488 Descending Chicago Center
Sun 10:45:23 PM 42.7092 -85.4617 88° East 387 445 20,000 -246 Descending Chicago Center
Sun 10:46:24 PM 42.7111 -85.3181 89° East 385 443 20,000  Level Chicago Center
Sun 10:47:26 PM 42.7131 -85.1736 89° East 383 441 20,000  Level Chicago Center
Sun 10:48:27 PM 42.7150 -85.0317 89° East 378 435 20,000 -295 Level Chicago Center
Sun 10:49:28 PM 42.7161 -84.8933 89° East 372 428 19,400 -984 Descending Chicago Center
Sun 10:50:29 PM 42.7172 -84.7394 89° East 342 394 18,000 -1,415 Descending Chicago Center
Sun 10:51:31 PM 42.7172 -84.6125 90° East 338 389 16,500 -1,512 Descending Chicago Center
Sun 10:52:32 PM 42.7158 -84.4886 91° East 331 381 14,900 -1,525 Descending Chicago Center
Sun 10:53:33 PM 42.7142 -84.3681 91° East 322 371 13,400 -1,620 Descending Chicago Center
Sun 10:54:12 PM 42.7114 -84.2850 93° East 319 367 12,200 -1,694 Descending Cleveland Center
Sun 10:54:58 PM 42.7119 -84.1947 89° East 317 365 11,000 -1,585 Descending Cleveland Center
Sun 10:55:58 PM 42.7094 -84.0786 92° East 302 348 9,400 -1,587 Descending Cleveland Center
Sun 10:56:59 PM 42.7003 -83.9681 96° East 293 337 7,800 -1,636 Descending Cleveland Center
Sun 10:57:59 PM 42.6950 -83.8547 94° East 290 334 6,100 -992 Descending Cleveland Center
Sun 10:59:12 PM 42.6881 -83.7383 95° East 290 334 5,600 -411 Descending Cleveland Center

Login

Don't have an account? Register now (free) for customized features, flight alerts, and more!